createdAt,value
2023-09-27T00:02:06.873Z,7.05
2023-09-27T00:04:39.080Z,7.05
2023-09-27T00:07:11.367Z,7.57
2023-09-27T00:09:43.632Z,7.60
2023-09-27T00:12:16.916Z,7.95
2023-09-27T00:14:49.028Z,7.10
2023-09-27T00:17:21.590Z,7.40
2023-09-27T00:19:53.800Z,7.43
2023-09-27T00:22:26.050Z,7.97
2023-09-27T00:24:58.708Z,8.48
2023-09-27T00:27:30.986Z,8.77
2023-09-27T00:30:03.858Z,8.43
2023-09-27T00:32:36.738Z,8.32
2023-09-27T00:35:16.110Z,8.77
2023-09-27T00:37:49.301Z,8.80
2023-09-27T00:40:24.370Z,10.65
2023-09-27T00:42:56.527Z,11.77
2023-09-27T00:45:28.688Z,11.43
2023-09-27T00:48:00.995Z,10.68
2023-09-27T00:50:33.249Z,10.40
2023-09-27T00:53:05.669Z,9.93
2023-09-27T00:55:38.383Z,9.75
2023-09-27T00:58:11.645Z,9.98
2023-09-27T01:00:44.042Z,9.05
2023-09-27T01:03:16.627Z,9.40
2023-09-27T01:05:49.490Z,10.63
2023-09-27T01:08:22.620Z,9.02
2023-09-27T01:10:54.952Z,8.50
2023-09-27T01:13:27.402Z,9.52
2023-09-27T01:15:59.561Z,9.43
2023-09-27T01:18:31.744Z,9.60
2023-09-27T01:21:04.099Z,9.85
2023-09-27T01:23:40.177Z,10.10
2023-09-27T01:26:14.162Z,9.95
2023-09-27T01:28:47.833Z,8.75
2023-09-27T01:31:20.394Z,10.15
2023-09-27T01:33:52.759Z,9.23
2023-09-27T01:36:25.136Z,10.13
2023-09-27T01:38:57.715Z,9.15
2023-09-27T01:41:29.809Z,9.73
2023-09-27T01:44:02.020Z,9.93
2023-09-27T01:46:34.250Z,10.95
2023-09-27T01:49:06.527Z,9.95
2023-09-27T01:51:38.615Z,10.02
2023-09-27T01:54:10.736Z,10.40
2023-09-27T01:56:42.817Z,10.57
2023-09-27T01:59:15.379Z,11.38
2023-09-27T02:01:47.573Z,10.68
2023-09-27T02:04:19.701Z,10.52
2023-09-27T02:06:51.775Z,10.60
2023-09-27T02:09:23.867Z,9.77
2023-09-27T02:11:55.970Z,11.00
2023-09-27T02:14:28.279Z,10.60
2023-09-27T02:17:00.463Z,10.50
2023-09-27T02:19:32.589Z,10.32
2023-09-27T02:22:04.677Z,10.30
2023-09-27T02:24:38.018Z,11.27
2023-09-27T02:27:12.084Z,11.50
2023-09-27T02:29:44.448Z,10.75
2023-09-27T02:32:16.629Z,11.05
2023-09-27T02:34:48.773Z,11.90
2023-09-27T02:37:21.872Z,10.75
2023-09-27T02:39:54.118Z,10.63
2023-09-27T02:42:26.618Z,10.90
2023-09-27T02:44:58.880Z,10.85
2023-09-27T02:47:32.281Z,11.57
2023-09-27T02:50:11.427Z,10.95
2023-09-27T02:52:45.469Z,11.50
2023-09-27T02:55:18.303Z,11.40
2023-09-27T02:57:54.341Z,10.52
2023-09-27T03:00:28.040Z,11.38
2023-09-27T03:03:01.834Z,11.02
2023-09-27T03:05:40.143Z,11.82
2023-09-27T03:08:12.531Z,12.13
2023-09-27T03:10:44.705Z,12.27
2023-09-27T03:13:17.199Z,11.60
2023-09-27T03:15:59.943Z,13.27
2023-09-27T03:18:33.500Z,12.57
2023-09-27T03:21:06.821Z,12.05
2023-09-27T03:23:38.986Z,12.07
2023-09-27T03:26:14.132Z,12.15
2023-09-27T03:28:46.269Z,11.27
2023-09-27T03:31:19.164Z,11.95
2023-09-27T03:33:51.326Z,12.82
2023-09-27T03:36:23.484Z,12.07
2023-09-27T03:38:55.836Z,13.15
2023-09-27T03:41:27.993Z,12.40
2023-09-27T03:44:00.251Z,13.18
2023-09-27T03:46:32.589Z,12.50
2023-09-27T03:49:05.053Z,12.82
2023-09-27T03:51:37.200Z,12.65
2023-09-27T03:54:09.382Z,12.43
2023-09-27T03:56:41.526Z,12.85
2023-09-27T03:59:15.104Z,12.55
2023-09-27T04:01:47.724Z,12.90
2023-09-27T04:04:20.436Z,13.48
2023-09-27T04:06:53.065Z,13.10
2023-09-27T04:09:25.161Z,13.80
2023-09-27T04:11:57.300Z,13.32
2023-09-27T04:14:29.728Z,13.70
2023-09-27T04:17:03.029Z,13.90
2023-09-27T04:19:35.364Z,14.13
2023-09-27T04:22:07.496Z,14.63
2023-09-27T04:24:39.600Z,15.50
2023-09-27T04:27:11.908Z,14.13
2023-09-27T04:29:44.133Z,15.40
2023-09-27T04:32:16.378Z,14.73
2023-09-27T04:34:48.463Z,14.23
2023-09-27T04:37:21.061Z,15.45
2023-09-27T04:39:53.217Z,15.73
2023-09-27T04:42:25.315Z,15.65
2023-09-27T04:44:57.465Z,15.43
2023-09-27T04:47:29.777Z,15.10
2023-09-27T04:50:02.259Z,16.25
2023-09-27T04:52:34.474Z,16.20
2023-09-27T04:55:08.667Z,16.77
2023-09-27T04:57:41.913Z,16.83
2023-09-27T05:00:21.179Z,16.75
2023-09-27T05:02:53.750Z,15.67
2023-09-27T05:05:26.039Z,16.42
2023-09-27T05:07:58.361Z,16.40
2023-09-27T05:10:30.535Z,15.13
2023-09-27T05:13:02.635Z,17.20
2023-09-27T05:15:35.125Z,17.33
2023-09-27T05:18:07.461Z,17.80
2023-09-27T05:20:39.632Z,17.20
2023-09-27T05:23:13.385Z,18.35
2023-09-27T05:25:45.752Z,17.92
2023-09-27T05:28:17.889Z,17.75
2023-09-27T05:30:50.082Z,19.52
2023-09-27T05:33:22.415Z,20.05
2023-09-27T05:35:54.652Z,20.77
2023-09-27T05:38:26.959Z,22.05
2023-09-27T05:40:59.148Z,21.05
2023-09-27T05:43:31.407Z,19.33
2023-09-27T05:46:04.216Z,20.27
2023-09-27T05:48:36.351Z,19.40
2023-09-27T05:51:09.070Z,21.83
2023-09-27T05:53:41.202Z,22.00
2023-09-27T05:56:13.418Z,20.33
2023-09-27T05:58:45.572Z,21.75
2023-09-27T06:01:20.989Z,21.55
2023-09-27T06:03:53.249Z,20.88
2023-09-27T06:06:25.437Z,21.55
2023-09-27T06:08:57.648Z,20.75
2023-09-27T06:11:29.790Z,20.33
2023-09-27T06:14:02.167Z,20.70
2023-09-27T06:16:34.358Z,22.90
2023-09-27T06:19:07.380Z,20.30
2023-09-27T06:21:40.650Z,20.20
2023-09-27T06:24:12.746Z,22.27
2023-09-27T06:26:45.126Z,21.90
2023-09-27T06:29:17.831Z,22.80
2023-09-27T06:31:52.053Z,23.35
2023-09-27T06:34:24.224Z,21.80
2023-09-27T06:36:57.915Z,21.58
2023-09-27T06:39:30.219Z,22.60
2023-09-27T06:42:03.438Z,22.30
2023-09-27T06:44:35.796Z,22.40
2023-09-27T06:47:08.184Z,21.80
2023-09-27T06:49:40.369Z,22.58
2023-09-27T06:52:13.007Z,24.40
2023-09-27T06:54:46.728Z,22.52
2023-09-27T06:57:18.921Z,22.70
2023-09-27T06:59:51.131Z,21.98
2023-09-27T07:02:23.462Z,20.77
2023-09-27T07:04:55.625Z,21.75
2023-09-27T07:07:30.828Z,20.60
2023-09-27T07:10:02.942Z,20.98
2023-09-27T07:12:38.859Z,20.40
2023-09-27T07:15:15.703Z,19.38
2023-09-27T07:17:50.075Z,20.08
2023-09-27T07:20:29.344Z,19.98
2023-09-27T07:23:05.319Z,18.42
2023-09-27T07:25:39.362Z,19.77
2023-09-27T07:28:12.515Z,18.42
2023-09-27T07:30:44.882Z,19.52
2023-09-27T07:33:18.870Z,19.27
2023-09-27T07:35:53.452Z,19.58
2023-09-27T07:38:26.750Z,19.80
2023-09-27T07:40:58.990Z,17.83
2023-09-27T07:43:31.321Z,18.50
2023-09-27T07:46:06.722Z,18.17
2023-09-27T07:48:40.947Z,18.15
2023-09-27T07:51:20.772Z,19.02
2023-09-27T07:53:54.548Z,16.33
2023-09-27T07:56:27.784Z,16.90
2023-09-27T07:59:00.043Z,16.10
2023-09-27T08:01:32.438Z,16.65
2023-09-27T08:04:11.725Z,16.92
2023-09-27T08:06:46.679Z,16.35
2023-09-27T08:09:35.164Z,16.08
2023-09-27T08:12:11.180Z,15.57
2023-09-27T08:14:43.705Z,15.10
2023-09-27T08:17:15.840Z,15.57
2023-09-27T08:19:47.933Z,16.60
2023-09-27T08:22:20.622Z,12.88
2023-09-27T08:24:53.179Z,16.65
2023-09-27T08:27:26.523Z,15.65
2023-09-27T08:29:58.653Z,13.52
2023-09-27T08:32:30.830Z,13.30
2023-09-27T08:35:06.646Z,12.50
2023-09-27T08:37:38.847Z,13.15
2023-09-27T08:40:14.856Z,13.00
2023-09-27T08:42:52.320Z,11.15
2023-09-27T08:45:25.812Z,13.80
2023-09-27T08:47:58.706Z,11.00
2023-09-27T08:50:31.772Z,11.70
2023-09-27T08:53:04.686Z,13.32
2023-09-27T08:55:39.059Z,11.75
2023-09-27T08:58:14.314Z,12.13
2023-09-27T09:00:47.032Z,14.13
2023-09-27T09:03:20.204Z,12.05
2023-09-27T09:05:53.342Z,11.00
2023-09-27T09:08:37.361Z,13.35
2023-09-27T09:11:19.846Z,9.15
2023-09-27T09:14:05.508Z,10.60
2023-09-27T09:16:41.651Z,12.15
2023-09-27T09:22:09.802Z,11.88
2023-09-27T09:24:43.876Z,8.77
2023-09-27T09:27:18.530Z,10.43
2023-09-27T09:29:54.301Z,12.15
2023-09-27T09:32:29.536Z,10.27
2023-09-27T09:35:02.186Z,11.20
2023-09-27T09:37:36.468Z,11.38
2023-09-27T09:40:17.400Z,9.23
2023-09-27T09:42:50.681Z,13.15
2023-09-27T09:45:24.510Z,11.02
2023-09-27T09:47:57.847Z,10.43
2023-09-27T09:50:30.913Z,8.90
2023-09-27T09:53:03.478Z,8.50
2023-09-27T09:56:08.970Z,12.00
2023-09-27T09:58:37.352Z,12.43
2023-09-27T10:01:14.395Z,16.25
2023-09-27T10:03:49.664Z,16.08
2023-09-27T10:06:40.821Z,12.65
2023-09-27T10:09:17.326Z,9.60
2023-09-27T10:11:50.976Z,9.32
2023-09-27T10:14:24.183Z,8.10
2023-09-27T10:16:56.493Z,8.55
2023-09-27T10:19:30.390Z,7.28
2023-09-27T10:22:15.639Z,5.72
2023-09-27T10:24:47.967Z,4.97
2023-09-27T10:27:20.369Z,4.55
2023-09-27T10:29:59.571Z,4.72
2023-09-27T10:32:32.477Z,6.28
2023-09-27T10:35:23.348Z,5.50
2023-09-27T10:38:00.754Z,3.45
2023-09-27T10:40:43.647Z,3.80
2023-09-27T10:43:37.728Z,3.15
2023-09-27T10:46:09.934Z,2.72
2023-09-27T10:48:43.873Z,3.10
2023-09-27T10:51:16.216Z,2.70
2023-09-27T10:53:50.342Z,3.22
2023-09-27T10:56:22.732Z,2.83
2023-09-27T10:58:55.378Z,3.20
2023-09-27T11:01:27.622Z,3.28
2023-09-27T11:04:07.693Z,3.03
2023-09-27T11:06:40.060Z,2.90
2023-09-27T11:09:13.846Z,2.95
2023-09-27T11:11:47.719Z,3.45
2023-09-27T11:14:37.018Z,3.65
2023-09-27T11:17:24.035Z,3.83
2023-09-27T11:19:56.483Z,3.22
2023-09-27T11:22:31.961Z,3.60
2023-09-27T11:25:04.572Z,3.05
2023-09-27T11:27:44.509Z,4.43
2023-09-27T11:30:17.050Z,4.07
2023-09-27T11:32:52.051Z,4.30
2023-09-27T11:35:27.386Z,2.78
2023-09-27T11:38:14.256Z,2.90
2023-09-27T11:40:47.809Z,3.20
2023-09-27T11:43:20.399Z,2.65
2023-09-27T11:45:53.631Z,2.70
2023-09-27T11:48:36.254Z,3.08
2023-09-27T11:51:09.470Z,2.63
2023-09-27T11:53:41.830Z,3.00
2023-09-27T11:56:14.308Z,2.40
2023-09-27T11:58:46.404Z,3.03
2023-09-27T12:01:18.576Z,3.63
2023-09-27T12:03:52.672Z,3.40
2023-09-27T12:06:27.170Z,4.32
2023-09-27T12:09:02.247Z,4.18
2023-09-27T12:11:34.742Z,9.77
2023-09-27T12:14:06.867Z,6.28
2023-09-27T12:16:39.039Z,4.20
2023-09-27T12:19:11.166Z,4.40
2023-09-27T12:21:43.773Z,4.05
2023-09-27T12:24:16.018Z,4.43
2023-09-27T12:26:48.228Z,3.20
2023-09-27T12:29:20.399Z,4.65
2023-09-27T12:31:52.801Z,5.00
2023-09-27T12:34:24.990Z,4.40
2023-09-27T12:36:57.544Z,6.13
2023-09-27T12:39:29.701Z,4.50
2023-09-27T12:42:02.969Z,6.22
2023-09-27T12:44:35.135Z,4.10
2023-09-27T12:47:07.826Z,5.07
2023-09-27T12:49:41.075Z,5.25
2023-09-27T12:52:14.964Z,6.10
2023-09-27T12:54:48.690Z,5.28
2023-09-27T12:57:20.829Z,7.00
2023-09-27T12:59:52.944Z,4.57
2023-09-27T13:02:28.356Z,5.15
2023-09-27T13:05:00.697Z,6.93
2023-09-27T13:07:32.841Z,7.05
2023-09-27T13:10:06.475Z,5.20
2023-09-27T13:12:41.420Z,5.10
2023-09-27T13:15:15.536Z,6.30
2023-09-27T13:17:47.779Z,6.25
2023-09-27T13:20:20.262Z,5.72
2023-09-27T13:22:52.533Z,6.57
2023-09-27T13:25:27.460Z,6.95
2023-09-27T13:27:59.813Z,5.35
2023-09-27T13:30:36.498Z,6.20
2023-09-27T13:33:09.240Z,5.25
2023-09-27T13:35:41.574Z,4.35
2023-09-27T13:38:14.074Z,4.05
2023-09-27T13:40:46.320Z,4.53
2023-09-27T13:43:18.568Z,5.68
2023-09-27T13:45:50.842Z,4.07
2023-09-27T13:48:24.386Z,6.07
2023-09-27T13:50:57.582Z,3.90
2023-09-27T13:53:29.720Z,3.60
2023-09-27T13:56:02.915Z,3.45
2023-09-27T13:58:35.136Z,4.20
2023-09-27T14:01:07.464Z,5.15
2023-09-27T14:03:39.990Z,4.75
2023-09-27T14:06:12.272Z,3.78
2023-09-27T14:08:44.646Z,4.03
2023-09-27T14:11:18.177Z,2.92
2023-09-27T14:13:50.367Z,4.00
2023-09-27T14:16:22.645Z,3.95
2023-09-27T14:18:55.182Z,3.80
2023-09-27T14:21:27.631Z,3.88
2023-09-27T14:23:59.853Z,3.55
2023-09-27T14:26:32.051Z,4.30
2023-09-27T14:29:04.981Z,4.20
2023-09-27T14:31:37.175Z,3.80
2023-09-27T14:34:09.514Z,4.38
2023-09-27T14:36:42.071Z,4.88
2023-09-27T14:39:15.982Z,4.30
2023-09-27T14:41:48.764Z,4.15
2023-09-27T14:44:21.521Z,4.00
2023-09-27T14:46:53.712Z,4.00
2023-09-27T14:49:26.166Z,3.53
2023-09-27T14:51:58.405Z,4.20
2023-09-27T14:54:30.516Z,4.28
2023-09-27T14:57:02.693Z,3.70
2023-09-27T14:59:34.887Z,3.88
2023-09-27T15:02:07.255Z,3.47
2023-09-27T15:04:39.590Z,3.20
2023-09-27T15:07:12.050Z,3.30
2023-09-27T15:09:44.400Z,4.18
2023-09-27T15:12:16.531Z,6.03
2023-09-27T15:14:48.684Z,6.50
2023-09-27T15:17:20.864Z,3.67
2023-09-27T15:19:53.073Z,3.03
2023-09-27T15:22:25.260Z,3.50
2023-09-27T15:24:57.515Z,3.35
2023-09-27T15:27:29.692Z,3.63
2023-09-27T15:30:02.120Z,3.00
2023-09-27T15:32:34.291Z,3.58
2023-09-27T15:35:08.488Z,3.78
2023-09-27T15:37:55.184Z,3.70
2023-09-27T15:40:31.749Z,3.60
2023-09-27T15:43:04.050Z,4.07
2023-09-27T15:45:36.315Z,5.03
2023-09-27T15:48:09.125Z,4.30
2023-09-27T15:50:41.531Z,4.50
2023-09-27T15:53:13.709Z,3.70
2023-09-27T15:55:45.867Z,4.18
2023-09-27T15:58:17.992Z,4.07
2023-09-27T16:00:50.434Z,4.03
2023-09-27T16:03:22.980Z,5.15
2023-09-27T16:05:55.674Z,3.85
2023-09-27T16:08:29.268Z,3.78
2023-09-27T16:11:01.652Z,8.15
2023-09-27T16:13:33.892Z,13.20
2023-09-27T16:16:06.236Z,9.00
2023-09-27T16:18:38.411Z,7.50
2023-09-27T16:21:24.294Z,6.70
2023-09-27T16:23:58.519Z,5.47
2023-09-27T16:26:31.555Z,5.55
2023-09-27T16:29:04.689Z,6.25
2023-09-27T16:31:38.345Z,5.70
2023-09-27T16:34:12.639Z,5.68
2023-09-27T16:36:45.988Z,5.53
2023-09-27T16:39:18.566Z,4.50
2023-09-27T16:41:51.195Z,5.35
2023-09-27T16:44:24.077Z,5.50
2023-09-27T16:46:56.259Z,5.85
2023-09-27T16:49:28.458Z,6.00
2023-09-27T16:52:01.058Z,5.60
2023-09-27T16:54:33.486Z,6.95
2023-09-27T16:57:05.692Z,7.97
2023-09-27T16:59:38.313Z,9.80
2023-09-27T17:02:10.657Z,8.88
2023-09-27T17:04:43.067Z,9.77
2023-09-27T17:07:15.371Z,10.35
2023-09-27T17:09:47.766Z,9.27
2023-09-27T17:12:20.908Z,9.98
2023-09-27T17:14:53.109Z,9.57
2023-09-27T17:17:25.570Z,9.68
2023-09-27T17:19:57.845Z,10.48
2023-09-27T17:22:30.531Z,10.60
2023-09-27T17:25:02.860Z,9.90
2023-09-27T17:27:35.035Z,10.13
2023-09-27T17:30:08.192Z,10.55
2023-09-27T17:32:40.811Z,10.90
2023-09-27T17:35:13.336Z,9.75
2023-09-27T17:37:45.736Z,11.82
2023-09-27T17:40:17.966Z,12.40
2023-09-27T17:42:51.772Z,12.38
2023-09-27T17:45:24.137Z,11.45
2023-09-27T17:47:56.374Z,9.68
2023-09-27T17:50:30.143Z,9.23
2023-09-27T17:53:02.430Z,9.30
2023-09-27T17:55:34.789Z,9.68
2023-09-27T17:58:07.257Z,9.68
2023-09-27T18:00:39.385Z,9.57
2023-09-27T18:03:11.568Z,9.93
2023-09-27T18:05:43.858Z,10.18
2023-09-27T18:08:16.069Z,9.10
2023-09-27T18:10:51.584Z,7.88
2023-09-27T18:13:23.894Z,10.30
2023-09-27T18:15:56.195Z,17.08
2023-09-27T18:18:28.413Z,12.98
2023-09-27T18:21:00.511Z,13.10
2023-09-27T18:23:32.691Z,27.50
2023-09-27T18:26:05.008Z,26.88
2023-09-27T18:28:37.840Z,19.15
2023-09-27T18:31:10.699Z,12.43
2023-09-27T18:33:43.121Z,9.95
2023-09-27T18:36:15.322Z,8.38
2023-09-27T18:38:47.519Z,7.20
2023-09-27T18:41:19.847Z,7.80
2023-09-27T18:43:52.272Z,7.88
2023-09-27T18:46:24.940Z,7.82
2023-09-27T18:48:57.183Z,7.53
2023-09-27T18:51:29.354Z,7.63
2023-09-27T18:54:01.540Z,12.05
2023-09-27T18:56:33.733Z,9.60
2023-09-27T18:59:06.379Z,8.95
2023-09-27T19:01:38.724Z,9.15
2023-09-27T19:04:11.006Z,7.43
2023-09-27T19:06:43.321Z,7.18
2023-09-27T19:09:17.479Z,6.70
2023-09-27T19:11:49.635Z,6.80
2023-09-27T19:14:21.930Z,6.82
2023-09-27T19:16:54.121Z,7.15
2023-09-27T19:19:26.788Z,6.95
2023-09-27T19:21:58.970Z,6.90
2023-09-27T19:24:32.862Z,6.47
2023-09-27T19:27:05.614Z,6.10
2023-09-27T19:29:37.738Z,6.97
2023-09-27T19:32:09.882Z,6.40
2023-09-27T19:34:42.028Z,7.15
2023-09-27T19:37:14.209Z,7.20
2023-09-27T19:39:46.865Z,7.97
2023-09-27T19:42:19.454Z,8.30
2023-09-27T19:44:51.611Z,9.00
2023-09-27T19:47:23.750Z,9.95
2023-09-27T19:49:56.107Z,33.60
2023-09-27T19:52:28.348Z,14.20
2023-09-27T19:55:00.530Z,12.13
2023-09-27T19:57:33.262Z,10.23
2023-09-27T20:00:18.847Z,8.68
2023-09-27T20:02:53.715Z,7.38
2023-09-27T20:05:28.094Z,8.80
2023-09-27T20:08:00.414Z,7.07
2023-09-27T20:10:32.638Z,7.00
2023-09-27T20:13:05.064Z,8.18
2023-09-27T20:15:37.274Z,6.85
2023-09-27T20:18:09.462Z,6.30
2023-09-27T20:20:41.769Z,6.90
2023-09-27T20:23:14.030Z,7.03
2023-09-27T20:25:46.307Z,5.85
2023-09-27T20:28:18.471Z,6.93
2023-09-27T20:30:50.973Z,7.63
2023-09-27T20:33:23.202Z,7.53
2023-09-27T20:35:55.469Z,7.80
2023-09-27T20:38:29.405Z,8.02
2023-09-27T20:41:01.592Z,7.50
2023-09-27T20:43:33.778Z,7.82
2023-09-27T20:46:14.980Z,14.95
2023-09-27T20:48:47.311Z,10.45
2023-09-27T20:51:19.498Z,9.45
2023-09-27T20:53:52.144Z,10.80
2023-09-27T20:56:24.593Z,11.13
2023-09-27T20:58:56.913Z,10.68
2023-09-27T21:01:37.217Z,9.43
2023-09-27T21:04:11.589Z,11.80
2023-09-27T21:06:44.577Z,10.25
2023-09-27T21:09:16.848Z,10.07
2023-09-27T21:11:49.023Z,12.20
2023-09-27T21:14:21.395Z,11.52
2023-09-27T21:16:53.591Z,9.70
2023-09-27T21:19:25.851Z,10.68
2023-09-27T21:21:58.442Z,9.88
2023-09-27T21:24:30.686Z,10.15
2023-09-27T21:27:03.293Z,10.02
2023-09-27T21:29:36.366Z,10.45
2023-09-27T21:32:08.557Z,10.93
2023-09-27T21:34:40.988Z,10.25
2023-09-27T21:37:15.925Z,9.93
2023-09-27T21:39:48.013Z,10.13
2023-09-27T21:42:20.473Z,10.07
2023-09-27T21:44:53.413Z,13.32
2023-09-27T21:47:25.975Z,11.68
2023-09-27T21:49:58.335Z,10.55
2023-09-27T21:52:37.041Z,11.18
2023-09-27T21:55:10.150Z,10.68
2023-09-27T21:57:43.365Z,11.65
2023-09-27T22:00:21.453Z,10.88
2023-09-27T22:02:54.146Z,12.90
2023-09-27T22:05:34.066Z,11.57
2023-09-27T22:08:06.754Z,12.77
2023-09-27T22:10:44.266Z,11.43
2023-09-27T22:13:23.322Z,12.40
2023-09-27T22:16:09.537Z,12.43
2023-09-27T22:18:51.821Z,12.15
2023-09-27T22:21:32.489Z,11.55
2023-09-27T22:24:16.620Z,12.30
2023-09-27T22:26:52.395Z,13.57
2023-09-27T22:29:24.835Z,13.95
2023-09-27T22:31:59.071Z,12.77
2023-09-27T22:34:38.853Z,12.88
2023-09-27T22:37:11.203Z,13.48
2023-09-27T22:39:44.855Z,13.30
2023-09-27T22:42:18.465Z,13.73
2023-09-27T22:44:50.630Z,14.20
2023-09-27T22:47:22.714Z,16.17
2023-09-27T22:49:54.907Z,15.23
2023-09-27T22:52:27.108Z,13.07
2023-09-27T22:54:59.925Z,15.88
2023-09-27T22:57:32.247Z,17.17
2023-09-27T23:00:10.877Z,16.55
2023-09-27T23:02:49.678Z,17.08
2023-09-27T23:05:40.726Z,14.38
2023-09-27T23:08:14.276Z,14.52
2023-09-27T23:10:49.235Z,15.90
2023-09-27T23:13:36.063Z,16.45
2023-09-27T23:16:26.305Z,15.43
2023-09-27T23:19:01.985Z,14.25
2023-09-27T23:21:34.381Z,14.48
2023-09-27T23:24:24.667Z,19.60
2023-09-27T23:29:31.880Z,17.17
2023-09-27T23:32:24.100Z,16.65
2023-09-27T23:35:00.447Z,17.45
2023-09-27T23:37:35.865Z,15.85
2023-09-27T23:40:15.816Z,16.30
2023-09-27T23:42:48.503Z,19.88
2023-09-27T23:45:21.412Z,16.90
2023-09-27T23:47:57.720Z,15.95
2023-09-27T23:50:31.713Z,16.55
2023-09-27T23:53:06.909Z,15.23
2023-09-27T23:55:42.682Z,17.48
2023-09-27T23:58:14.933Z,17.58
